sensor_id;sensor_type;location;lat;lon;timestamp;pressure;altitude;pressure_sealevel;temperature;humidity
50166;BME280;36071;48.140;11.516;2022-09-02T00:02:16;95630.0;;;15.4;61.7
50166;BME280;36071;48.140;11.516;2022-09-02T00:07:16;95620.0;;;15.4;62.0
50166;BME280;36071;48.140;11.516;2022-09-02T00:12:16;95620.0;;;15.4;61.9
50166;BME280;36071;48.140;11.516;2022-09-02T00:22:16;95610.0;;;15.4;62.1
50166;BME280;36071;48.140;11.516;2022-09-02T00:32:16;95610.0;;;15.3;62.2
50166;BME280;36071;48.140;11.516;2022-09-02T00:37:16;95610.0;;;15.3;62.3
50166;BME280;36071;48.140;11.516;2022-09-02T00:42:16;95600.0;;;15.3;62.9
50166;BME280;36071;48.140;11.516;2022-09-02T00:47:16;95600.0;;;15.2;63.1
50166;BME280;36071;48.140;11.516;2022-09-02T00:52:16;95600.0;;;15.2;63.0
50166;BME280;36071;48.140;11.516;2022-09-02T00:57:16;95590.0;;;15.2;63.1
50166;BME280;36071;48.140;11.516;2022-09-02T01:02:16;95600.0;;;15.1;64.1
50166;BME280;36071;48.140;11.516;2022-09-02T01:07:16;95570.0;;;14.8;63.9
50166;BME280;36071;48.140;11.516;2022-09-02T01:12:16;95590.0;;;15.0;64.3
50166;BME280;36071;48.140;11.516;2022-09-02T01:17:16;95590.0;;;14.9;64.3
50166;BME280;36071;48.140;11.516;2022-09-02T01:27:16;95590.0;;;14.9;65.1
50166;BME280;36071;48.140;11.516;2022-09-02T01:32:16;95600.0;;;14.8;64.8
50166;BME280;36071;48.140;11.516;2022-09-02T01:37:16;95580.0;;;14.8;65.1
50166;BME280;36071;48.140;11.516;2022-09-02T01:42:16;95580.0;;;14.8;65.3
50166;BME280;36071;48.140;11.516;2022-09-02T01:47:17;95580.0;;;14.7;65.4
50166;BME280;36071;48.140;11.516;2022-09-02T01:52:16;95580.0;;;14.7;65.5
50166;BME280;36071;48.140;11.516;2022-09-02T01:57:16;95570.0;;;14.6;66.6
50166;BME280;36071;48.140;11.516;2022-09-02T02:02:16;95570.0;;;14.5;66.3
50166;BME280;36071;48.140;11.516;2022-09-02T02:07:16;95570.0;;;14.5;66.7
50166;BME280;36071;48.140;11.516;2022-09-02T02:12:16;95580.0;;;14.5;66.5
50166;BME280;36071;48.140;11.516;2022-09-02T02:17:16;95570.0;;;14.5;66.8
50166;BME280;36071;48.140;11.516;2022-09-02T02:22:16;95570.0;;;14.4;67.4
50166;BME280;36071;48.140;11.516;2022-09-02T02:27:16;95560.0;;;14.3;67.5
50166;BME280;36071;48.140;11.516;2022-09-02T02:32:16;95570.0;;;14.3;67.2
50166;BME280;36071;48.140;11.516;2022-09-02T02:37:16;95560.0;;;14.3;68.1
50166;BME280;36071;48.140;11.516;2022-09-02T02:42:16;95560.0;;;14.3;67.7
50166;BME280;36071;48.140;11.516;2022-09-02T02:47:16;95560.0;;;14.3;67.9
50166;BME280;36071;48.140;11.516;2022-09-02T02:52:16;95550.0;;;14.3;68.2
50166;BME280;36071;48.140;11.516;2022-09-02T02:57:16;95560.0;;;14.2;68.6
50166;BME280;36071;48.140;11.516;2022-09-02T03:02:16;95560.0;;;14.1;69.0
50166;BME280;36071;48.140;11.516;2022-09-02T03:07:16;95550.0;;;14.1;68.6
50166;BME280;36071;48.140;11.516;2022-09-02T03:12:16;95550.0;;;14.1;69.5
50166;BME280;36071;48.140;11.516;2022-09-02T03:17:16;95540.0;;;14.0;69.3
50166;BME280;36071;48.140;11.516;2022-09-02T03:22:23;95550.0;;;14.0;69.6
50166;BME280;36071;48.140;11.516;2022-09-02T03:27:16;95540.0;;;14.0;69.5
50166;BME280;36071;48.140;11.516;2022-09-02T03:32:16;95540.0;;;13.9;69.6
50166;BME280;36071;48.140;11.516;2022-09-02T03:37:16;95540.0;;;13.8;70.4
50166;BME280;36071;48.140;11.516;2022-09-02T03:42:16;95540.0;;;13.8;70.2
50166;BME280;36071;48.140;11.516;2022-09-02T03:47:16;95550.0;;;13.8;70.0
50166;BME280;36071;48.140;11.516;2022-09-02T03:52:16;95540.0;;;13.8;70.3
50166;BME280;36071;48.140;11.516;2022-09-02T03:57:16;95540.0;;;13.7;71.0
50166;BME280;36071;48.140;11.516;2022-09-02T04:02:16;95530.0;;;13.6;71.6
50166;BME280;36071;48.140;11.516;2022-09-02T04:07:16;95530.0;;;13.7;71.2
50166;BME280;36071;48.140;11.516;2022-09-02T04:12:16;95520.0;;;13.6;71.3
50166;BME280;36071;48.140;11.516;2022-09-02T04:17:16;95540.0;;;13.6;71.7
50166;BME280;36071;48.140;11.516;2022-09-02T04:22:16;95530.0;;;13.6;71.9
50166;BME280;36071;48.140;11.516;2022-09-02T04:27:16;95530.0;;;13.5;72.1
50166;BME280;36071;48.140;11.516;2022-09-02T04:32:16;95540.0;;;13.6;72.4
50166;BME280;36071;48.140;11.516;2022-09-02T04:37:16;95530.0;;;13.5;72.2
50166;BME280;36071;48.140;11.516;2022-09-02T04:42:16;95540.0;;;13.5;73.0
50166;BME280;36071;48.140;11.516;2022-09-02T04:47:16;95530.0;;;13.5;72.4
50166;BME280;36071;48.140;11.516;2022-09-02T04:52:21;95530.0;;;13.4;73.2
50166;BME280;36071;48.140;11.516;2022-09-02T04:57:16;95530.0;;;13.4;73.6
50166;BME280;36071;48.140;11.516;2022-09-02T05:02:16;95530.0;;;13.3;73.5
50166;BME280;36071;48.140;11.516;2022-09-02T05:07:16;95530.0;;;13.3;74.3
50166;BME280;36071;48.140;11.516;2022-09-02T05:12:16;95540.0;;;13.3;73.8
50166;BME280;36071;48.140;11.516;2022-09-02T05:17:16;95540.0;;;13.3;74.2
50166;BME280;36071;48.140;11.516;2022-09-02T05:27:16;95540.0;;;13.3;74.1
50166;BME280;36071;48.140;11.516;2022-09-02T05:32:16;95550.0;;;13.3;73.9
50166;BME280;36071;48.140;11.516;2022-09-02T05:37:16;95540.0;;;13.3;74.2
50166;BME280;36071;48.140;11.516;2022-09-02T05:42:16;95540.0;;;13.4;74.1
50166;BME280;36071;48.140;11.516;2022-09-02T05:47:16;95550.0;;;13.4;74.3
50166;BME280;36071;48.140;11.516;2022-09-02T05:52:16;95540.0;;;13.4;73.9
50166;BME280;36071;48.140;11.516;2022-09-02T05:57:16;95540.0;;;13.4;74.4
50166;BME280;36071;48.140;11.516;2022-09-02T06:02:16;95540.0;;;13.5;74.1
50166;BME280;36071;48.140;11.516;2022-09-02T06:07:16;95540.0;;;13.6;73.6
50166;BME280;36071;48.140;11.516;2022-09-02T06:12:16;95540.0;;;13.6;73.3
50166;BME280;36071;48.140;11.516;2022-09-02T06:17:16;95540.0;;;13.6;73.2
50166;BME280;36071;48.140;11.516;2022-09-02T06:22:16;95540.0;;;13.7;73.8
50166;BME280;36071;48.140;11.516;2022-09-02T06:27:16;95530.0;;;13.7;72.6
50166;BME280;36071;48.140;11.516;2022-09-02T06:32:16;95540.0;;;13.8;72.7
50166;BME280;36071;48.140;11.516;2022-09-02T06:37:16;95530.0;;;13.9;73.0
50166;BME280;36071;48.140;11.516;2022-09-02T06:42:16;95530.0;;;14.0;71.6
50166;BME280;36071;48.140;11.516;2022-09-02T06:47:16;95530.0;;;14.2;72.4
50166;BME280;36071;48.140;11.516;2022-09-02T06:52:16;95530.0;;;14.4;71.9
50166;BME280;36071;48.140;11.516;2022-09-02T06:57:16;95520.0;;;14.4;69.9
50166;BME280;36071;48.140;11.516;2022-09-02T07:02:16;95530.0;;;14.7;68.3
50166;BME280;36071;48.140;11.516;2022-09-02T07:07:16;95530.0;;;14.9;67.1
50166;BME280;36071;48.140;11.516;2022-09-02T07:12:16;95520.0;;;15.1;66.0
50166;BME280;36071;48.140;11.516;2022-09-02T07:17:16;95530.0;;;15.5;65.8
50166;BME280;36071;48.140;11.516;2022-09-02T07:22:16;95530.0;;;16.0;63.8
50166;BME280;36071;48.140;11.516;2022-09-02T07:27:16;95530.0;;;16.3;62.0
50166;BME280;36071;48.140;11.516;2022-09-02T07:32:16;95530.0;;;16.7;59.9
50166;BME280;36071;48.140;11.516;2022-09-02T07:37:16;95520.0;;;17.1;60.6
50166;BME280;36071;48.140;11.516;2022-09-02T07:42:16;95530.0;;;17.6;58.1
50166;BME280;36071;48.140;11.516;2022-09-02T07:47:16;95530.0;;;17.9;56.3
50166;BME280;36071;48.140;11.516;2022-09-02T07:52:16;95530.0;;;18.1;55.7
50166;BME280;36071;48.140;11.516;2022-09-02T07:57:16;95520.0;;;18.2;54.6
50166;BME280;36071;48.140;11.516;2022-09-02T08:02:16;95520.0;;;18.6;53.7
50166;BME280;36071;48.140;11.516;2022-09-02T08:07:16;95520.0;;;18.9;51.9
50166;BME280;36071;48.140;11.516;2022-09-02T08:12:16;95520.0;;;19.2;50.8
50166;BME280;36071;48.140;11.516;2022-09-02T08:17:16;95510.0;;;19.4;50.5
50166;BME280;36071;48.140;11.516;2022-09-02T08:27:16;95510.0;;;20.0;46.0
50166;BME280;36071;48.140;11.516;2022-09-02T08:32:16;95500.0;;;19.9;44.6
50166;BME280;36071;48.140;11.516;2022-09-02T08:37:16;95510.0;;;20.4;45.4
50166;BME280;36071;48.140;11.516;2022-09-02T08:42:18;95500.0;;;20.3;43.4
50166;BME280;36071;48.140;11.516;2022-09-02T08:47:17;95500.0;;;20.4;42.9
50166;BME280;36071;48.140;11.516;2022-09-02T08:52:18;95500.0;;;20.8;43.2
50166;BME280;36071;48.140;11.516;2022-09-02T08:57:16;95500.0;;;21.2;41.3
50166;BME280;36071;48.140;11.516;2022-09-02T09:02:22;95500.0;;;21.5;42.3
50166;BME280;36071;48.140;11.516;2022-09-02T09:07:23;95500.0;;;21.8;40.5
50166;BME280;36071;48.140;11.516;2022-09-02T09:12:18;95490.0;;;22.1;39.8
50166;BME280;36071;48.140;11.516;2022-09-02T09:17:18;95490.0;;;22.3;39.0
50166;BME280;36071;48.140;11.516;2022-09-02T09:22:17;95490.0;;;22.5;39.2
50166;BME280;36071;48.140;11.516;2022-09-02T09:27:17;95480.0;;;22.7;38.3
50166;BME280;36071;48.140;11.516;2022-09-02T09:32:18;95470.0;;;23.0;37.4
50166;BME280;36071;48.140;11.516;2022-09-02T09:37:20;95460.0;;;23.3;37.4
50166;BME280;36071;48.140;11.516;2022-09-02T09:42:27;95470.0;;;23.4;37.6
50166;BME280;36071;48.140;11.516;2022-09-02T09:47:16;95460.0;;;23.7;36.9
50166;BME280;36071;48.140;11.516;2022-09-02T09:52:21;95460.0;;;23.8;36.5
50166;BME280;36071;48.140;11.516;2022-09-02T09:57:18;95470.0;;;24.2;35.7
50166;BME280;36071;48.140;11.516;2022-09-02T10:02:18;95460.0;;;24.6;35.1
50166;BME280;36071;48.140;11.516;2022-09-02T10:07:32;95460.0;;;24.7;34.3
50166;BME280;36071;48.140;11.516;2022-09-02T10:12:16;95460.0;;;24.8;34.4
50166;BME280;36071;48.140;11.516;2022-09-02T10:17:22;95460.0;;;25.0;33.9
50166;BME280;36071;48.140;11.516;2022-09-02T10:27:19;95460.0;;;25.4;32.7
50166;BME280;36071;48.140;11.516;2022-09-02T10:32:21;95460.0;;;25.2;31.9
50166;BME280;36071;48.140;11.516;2022-09-02T10:37:16;95460.0;;;25.5;31.8
50166;BME280;36071;48.140;11.516;2022-09-02T10:42:17;95460.0;;;25.7;31.9
50166;BME280;36071;48.140;11.516;2022-09-02T10:47:17;95450.0;;;26.1;32.8
50166;BME280;36071;48.140;11.516;2022-09-02T10:52:20;95450.0;;;26.1;31.4
50166;BME280;36071;48.140;11.516;2022-09-02T10:57:16;95440.0;;;26.3;30.1
50166;BME280;36071;48.140;11.516;2022-09-02T11:02:16;95430.0;;;26.6;30.3
50166;BME280;36071;48.140;11.516;2022-09-02T11:07:17;95420.0;;;26.6;31.0
50166;BME280;36071;48.140;11.516;2022-09-02T11:12:17;95420.0;;;26.8;31.2
50166;BME280;36071;48.140;11.516;2022-09-02T11:17:18;95420.0;;;27.0;30.2
50166;BME280;36071;48.140;11.516;2022-09-02T11:22:18;95410.0;;;26.9;31.0
50166;BME280;36071;48.140;11.516;2022-09-02T11:27:16;95410.0;;;27.2;30.4
50166;BME280;36071;48.140;11.516;2022-09-02T11:32:17;95410.0;;;27.1;31.4
50166;BME280;36071;48.140;11.516;2022-09-02T11:37:23;95410.0;;;27.2;29.1
50166;BME280;36071;48.140;11.516;2022-09-02T11:42:21;95410.0;;;27.2;30.5
50166;BME280;36071;48.140;11.516;2022-09-02T11:47:27;95400.0;;;27.1;29.8
50166;BME280;36071;48.140;11.516;2022-09-02T11:52:17;95400.0;;;27.4;30.6
50166;BME280;36071;48.140;11.516;2022-09-02T11:57:20;95400.0;;;27.5;30.9
50166;BME280;36071;48.140;11.516;2022-09-02T12:02:24;95410.0;;;27.5;29.3
50166;BME280;36071;48.140;11.516;2022-09-02T12:07:21;95400.0;;;27.5;30.7
50166;BME280;36071;48.140;11.516;2022-09-02T12:13:00;95390.0;;;27.9;29.3
50166;BME280;36071;48.140;11.516;2022-09-02T12:17:31;95400.0;;;27.8;29.3
50166;BME280;36071;48.140;11.516;2022-09-02T12:22:24;95400.0;;;27.7;29.8
50166;BME280;36071;48.140;11.516;2022-09-02T12:27:20;95410.0;;;27.8;30.5
50166;BME280;36071;48.140;11.516;2022-09-02T12:37:48;95390.0;;;27.8;28.7
50166;BME280;36071;48.140;11.516;2022-09-02T12:42:18;95380.0;;;28.0;29.4
50166;BME280;36071;48.140;11.516;2022-09-02T12:47:21;95380.0;;;28.0;29.8
50166;BME280;36071;48.140;11.516;2022-09-02T12:52:39;95380.0;;;28.0;29.4
50166;BME280;36071;48.140;11.516;2022-09-02T12:57:16;95370.0;;;28.0;30.9
50166;BME280;36071;48.140;11.516;2022-09-02T13:02:20;95370.0;;;28.3;29.5
50166;BME280;36071;48.140;11.516;2022-09-02T13:07:23;95370.0;;;28.4;30.4
50166;BME280;36071;48.140;11.516;2022-09-02T13:12:25;95380.0;;;28.5;29.4
50166;BME280;36071;48.140;11.516;2022-09-02T13:17:20;95370.0;;;28.2;28.1
50166;BME280;36071;48.140;11.516;2022-09-02T13:22:22;95340.0;;;28.1;30.0
50166;BME280;36071;48.140;11.516;2022-09-02T13:27:25;95360.0;;;28.2;29.5
50166;BME280;36071;48.140;11.516;2022-09-02T13:32:20;95350.0;;;28.1;29.9
50166;BME280;36071;48.140;11.516;2022-09-02T13:37:32;95350.0;;;28.2;29.4
50166;BME280;36071;48.140;11.516;2022-09-02T13:42:16;95350.0;;;28.2;29.0
50166;BME280;36071;48.140;11.516;2022-09-02T13:47:16;95330.0;;;28.0;29.6
50166;BME280;36071;48.140;11.516;2022-09-02T13:52:17;95340.0;;;28.1;28.6
50166;BME280;36071;48.140;11.516;2022-09-02T13:57:17;95340.0;;;28.0;30.5
50166;BME280;36071;48.140;11.516;2022-09-02T14:02:19;95350.0;;;28.1;29.3
50166;BME280;36071;48.140;11.516;2022-09-02T14:07:17;95340.0;;;28.0;29.2
50166;BME280;36071;48.140;11.516;2022-09-02T14:12:16;95340.0;;;27.9;29.9
50166;BME280;36071;48.140;11.516;2022-09-02T14:17:16;95330.0;;;27.8;29.2
50166;BME280;36071;48.140;11.516;2022-09-02T14:22:19;95330.0;;;27.8;29.8
50166;BME280;36071;48.140;11.516;2022-09-02T14:37:19;95310.0;;;27.6;29.9
50166;BME280;36071;48.140;11.516;2022-09-02T14:42:16;95310.0;;;27.7;29.5
50166;BME280;36071;48.140;11.516;2022-09-02T14:47:16;95300.0;;;27.7;29.9
50166;BME280;36071;48.140;11.516;2022-09-02T14:52:16;95300.0;;;27.5;29.8
50166;BME280;36071;48.140;11.516;2022-09-02T14:57:20;95300.0;;;27.3;29.8
50166;BME280;36071;48.140;11.516;2022-09-02T15:02:20;95300.0;;;27.3;30.1
50166;BME280;36071;48.140;11.516;2022-09-02T15:07:16;95290.0;;;27.2;29.7
50166;BME280;36071;48.140;11.516;2022-09-02T15:12:16;95290.0;;;27.1;29.9
50166;BME280;36071;48.140;11.516;2022-09-02T15:17:21;95290.0;;;27.0;29.9
50166;BME280;36071;48.140;11.516;2022-09-02T15:22:17;95280.0;;;26.9;30.3
50166;BME280;36071;48.140;11.516;2022-09-02T15:27:23;95280.0;;;26.7;29.8
50166;BME280;36071;48.140;11.516;2022-09-02T15:32:16;95290.0;;;26.6;29.3
50166;BME280;36071;48.140;11.516;2022-09-02T15:37:16;95290.0;;;26.3;30.4
50166;BME280;36071;48.140;11.516;2022-09-02T15:42:16;95290.0;;;26.3;31.3
50166;BME280;36071;48.140;11.516;2022-09-02T15:47:16;95300.0;;;26.2;30.8
50166;BME280;36071;48.140;11.516;2022-09-02T15:52:16;95280.0;;;26.1;31.6
50166;BME280;36071;48.140;11.516;2022-09-02T15:57:16;95280.0;;;25.9;31.1
50166;BME280;36071;48.140;11.516;2022-09-02T16:02:16;95280.0;;;25.7;31.2
50166;BME280;36071;48.140;11.516;2022-09-02T16:07:16;95280.0;;;25.6;31.3
50166;BME280;36071;48.140;11.516;2022-09-02T16:12:16;95270.0;;;25.4;31.0
50166;BME280;36071;48.140;11.516;2022-09-02T16:17:16;95270.0;;;25.3;31.4
50166;BME280;36071;48.140;11.516;2022-09-02T16:22:16;95260.0;;;25.1;31.8
50166;BME280;36071;48.140;11.516;2022-09-02T16:27:16;95270.0;;;25.0;32.7
50166;BME280;36071;48.140;11.516;2022-09-02T16:32:16;95270.0;;;25.0;31.9
50166;BME280;36071;48.140;11.516;2022-09-02T16:37:16;95280.0;;;24.8;32.4
50166;BME280;36071;48.140;11.516;2022-09-02T16:42:16;95280.0;;;24.7;32.6
50166;BME280;36071;48.140;11.516;2022-09-02T16:47:16;95280.0;;;24.6;33.0
50166;BME280;36071;48.140;11.516;2022-09-02T16:52:16;95270.0;;;24.3;32.6
50166;BME280;36071;48.140;11.516;2022-09-02T16:57:16;95260.0;;;24.1;33.4
50166;BME280;36071;48.140;11.516;2022-09-02T17:02:16;95270.0;;;24.0;33.2
50166;BME280;36071;48.140;11.516;2022-09-02T17:07:16;95270.0;;;24.0;34.0
50166;BME280;36071;48.140;11.516;2022-09-02T17:12:16;95260.0;;;23.8;34.0
50166;BME280;36071;48.140;11.516;2022-09-02T17:17:16;95260.0;;;23.5;34.2
50166;BME280;36071;48.140;11.516;2022-09-02T17:22:16;95260.0;;;23.5;34.3
50166;BME280;36071;48.140;11.516;2022-09-02T17:27:16;95260.0;;;23.4;34.2
50166;BME280;36071;48.140;11.516;2022-09-02T17:32:16;95260.0;;;23.4;34.7
50166;BME280;36071;48.140;11.516;2022-09-02T17:37:16;95270.0;;;23.3;34.4
50166;BME280;36071;48.140;11.516;2022-09-02T17:42:16;95260.0;;;23.2;34.6
50166;BME280;36071;48.140;11.516;2022-09-02T17:47:17;95260.0;;;23.0;34.7
50166;BME280;36071;48.140;11.516;2022-09-02T17:52:16;95260.0;;;22.6;35.2
50166;BME280;36071;48.140;11.516;2022-09-02T17:57:19;95240.0;;;22.5;35.4
50166;BME280;36071;48.140;11.516;2022-09-02T18:02:24;95270.0;;;22.7;35.8
50166;BME280;36071;48.140;11.516;2022-09-02T18:07:18;95270.0;;;22.6;35.8
50166;BME280;36071;48.140;11.516;2022-09-02T18:12:16;95270.0;;;22.4;36.4
50166;BME280;36071;48.140;11.516;2022-09-02T18:17:19;95280.0;;;22.4;37.0
50166;BME280;36071;48.140;11.516;2022-09-02T18:22:26;95270.0;;;22.2;36.5
50166;BME280;36071;48.140;11.516;2022-09-02T18:27:18;95290.0;;;22.0;36.5
50166;BME280;36071;48.140;11.516;2022-09-02T18:32:18;95300.0;;;22.0;36.8
50166;BME280;36071;48.140;11.516;2022-09-02T18:37:19;95300.0;;;21.9;37.1
50166;BME280;36071;48.140;11.516;2022-09-02T18:42:19;95290.0;;;21.9;37.2
50166;BME280;36071;48.140;11.516;2022-09-02T18:47:18;95290.0;;;21.8;37.2
50166;BME280;36071;48.140;11.516;2022-09-02T18:52:16;95280.0;;;21.6;37.3
50166;BME280;36071;48.140;11.516;2022-09-02T18:57:16;95300.0;;;21.5;37.5
50166;BME280;36071;48.140;11.516;2022-09-02T19:02:19;95310.0;;;21.5;37.6
50166;BME280;36071;48.140;11.516;2022-09-02T19:07:21;95320.0;;;21.4;37.7
50166;BME280;36071;48.140;11.516;2022-09-02T19:12:16;95330.0;;;21.3;38.3
50166;BME280;36071;48.140;11.516;2022-09-02T19:17:16;95330.0;;;21.3;38.8
50166;BME280;36071;48.140;11.516;2022-09-02T19:22:16;95320.0;;;21.1;38.3
50166;BME280;36071;48.140;11.516;2022-09-02T19:27:16;95320.0;;;21.1;38.8
50166;BME280;36071;48.140;11.516;2022-09-02T19:32:16;95320.0;;;20.8;39.5
50166;BME280;36071;48.140;11.516;2022-09-02T19:37:16;95320.0;;;20.8;39.1
50166;BME280;36071;48.140;11.516;2022-09-02T19:42:16;95320.0;;;20.7;39.5
50166;BME280;36071;48.140;11.516;2022-09-02T19:47:16;95310.0;;;20.5;39.5
50166;BME280;36071;48.140;11.516;2022-09-02T19:52:16;95300.0;;;20.5;39.7
50166;BME280;36071;48.140;11.516;2022-09-02T19:57:16;95300.0;;;20.4;40.1
50166;BME280;36071;48.140;11.516;2022-09-02T20:02:16;95300.0;;;20.3;40.0
50166;BME280;36071;48.140;11.516;2022-09-02T20:07:16;95320.0;;;20.2;40.4
50166;BME280;36071;48.140;11.516;2022-09-02T20:12:16;95320.0;;;20.1;40.5
50166;BME280;36071;48.140;11.516;2022-09-02T20:17:17;95320.0;;;20.0;40.9
50166;BME280;36071;48.140;11.516;2022-09-02T20:22:16;95330.0;;;19.9;41.1
50166;BME280;36071;48.140;11.516;2022-09-02T20:27:19;95310.0;;;19.8;41.3
50166;BME280;36071;48.140;11.516;2022-09-02T20:32:19;95300.0;;;19.7;41.4
50166;BME280;36071;48.140;11.516;2022-09-02T20:37:19;95300.0;;;19.7;42.0
50166;BME280;36071;48.140;11.516;2022-09-02T20:42:19;95300.0;;;19.6;41.7
50166;BME280;36071;48.140;11.516;2022-09-02T20:47:20;95300.0;;;19.5;41.6
50166;BME280;36071;48.140;11.516;2022-09-02T20:52:17;95310.0;;;19.5;42.4
50166;BME280;36071;48.140;11.516;2022-09-02T20:57:21;95310.0;;;19.5;42.2
50166;BME280;36071;48.140;11.516;2022-09-02T21:02:17;95310.0;;;19.4;42.5
50166;BME280;36071;48.140;11.516;2022-09-02T21:07:16;95310.0;;;19.2;42.7
50166;BME280;36071;48.140;11.516;2022-09-02T21:12:19;95300.0;;;19.1;42.9
50166;BME280;36071;48.140;11.516;2022-09-02T21:17:18;95300.0;;;19.0;43.3
50166;BME280;36071;48.140;11.516;2022-09-02T21:22:18;95300.0;;;18.9;43.6
50166;BME280;36071;48.140;11.516;2022-09-02T21:27:17;95310.0;;;18.9;43.9
50166;BME280;36071;48.140;11.516;2022-09-02T21:32:17;95300.0;;;18.9;43.8
50166;BME280;36071;48.140;11.516;2022-09-02T21:37:16;95300.0;;;18.8;44.2
50166;BME280;36071;48.140;11.516;2022-09-02T21:42:18;95320.0;;;18.7;44.4
50166;BME280;36071;48.140;11.516;2022-09-02T21:47:18;95310.0;;;18.6;44.7
50166;BME280;36071;48.140;11.516;2022-09-02T21:52:18;95300.0;;;18.7;44.8
50166;BME280;36071;48.140;11.516;2022-09-02T21:57:20;95310.0;;;18.6;44.9
50166;BME280;36071;48.140;11.516;2022-09-02T22:07:17;95310.0;;;18.5;45.3
50166;BME280;36071;48.140;11.516;2022-09-02T22:12:16;95310.0;;;18.4;45.6
50166;BME280;36071;48.140;11.516;2022-09-02T22:17:17;95310.0;;;18.5;45.4
50166;BME280;36071;48.140;11.516;2022-09-02T22:22:16;95300.0;;;18.5;45.8
50166;BME280;36071;48.140;11.516;2022-09-02T22:27:16;95310.0;;;18.3;46.1
50166;BME280;36071;48.140;11.516;2022-09-02T22:32:17;95300.0;;;18.3;46.0
50166;BME280;36071;48.140;11.516;2022-09-02T22:37:18;95310.0;;;18.3;46.5
50166;BME280;36071;48.140;11.516;2022-09-02T22:42:18;95290.0;;;18.2;46.7
50166;BME280;36071;48.140;11.516;2022-09-02T22:47:16;95290.0;;;18.2;47.0
50166;BME280;36071;48.140;11.516;2022-09-02T22:52:20;95300.0;;;18.1;47.0
50166;BME280;36071;48.140;11.516;2022-09-02T22:57:18;95300.0;;;18.1;46.6
50166;BME280;36071;48.140;11.516;2022-09-02T23:02:19;95290.0;;;18.0;46.8
50166;BME280;36071;48.140;11.516;2022-09-02T23:07:16;95290.0;;;18.0;47.2
50166;BME280;36071;48.140;11.516;2022-09-02T23:12:19;95300.0;;;17.9;47.2
50166;BME280;36071;48.140;11.516;2022-09-02T23:17:18;95300.0;;;17.9;47.7
50166;BME280;36071;48.140;11.516;2022-09-02T23:22:18;95300.0;;;17.8;47.5
50166;BME280;36071;48.140;11.516;2022-09-02T23:27:18;95290.0;;;17.7;47.9
50166;BME280;36071;48.140;11.516;2022-09-02T23:32:23;95280.0;;;17.6;47.8
50166;BME280;36071;48.140;11.516;2022-09-02T23:37:19;95280.0;;;17.5;48.3
50166;BME280;36071;48.140;11.516;2022-09-02T23:42:16;95280.0;;;17.4;48.7
50166;BME280;36071;48.140;11.516;2022-09-02T23:47:22;95270.0;;;17.5;48.7
50166;BME280;36071;48.140;11.516;2022-09-02T23:52:20;95280.0;;;17.4;49.3
50166;BME280;36071;48.140;11.516;2022-09-02T23:57:21;95290.0;;;17.4;49.5
